Atlanta, Texas
Current Conditions -  °F | °C
As of 12:53 PM on Friday 24 Oct 2014 (Local Time) from KTXK Reporting Station
Clear Clear  
Wind Chill: 72°   Ceiling: Unl
Heat Index: 72°   Visibility: 10mi
Dew Point: 52°   Wind: 0mph
Humidity: 49%   Direction: NA
Pressure: 30.16"   Gusts: NA
Location:  33.12°N, 94.17°W
Report Text: KTXK 241753Z 00000KT 10SM CLR 22/11 A3016 RMK AO2 SLP210 T02220111 10222 20089 58013
Loading
Personal Weather Stations






























Interactive Weather Map New forecast layout! Learn more

10-Day Weather Forecast

Advertisements
Track Severe Weather on mobile